sensor_id;sensor_type;location;lat;lon;timestamp;temperature;humidity
74484;SHT31;62942;52.462;10.846;2022-10-26T00:00:15;7.3;96.6
74484;SHT31;62942;52.462;10.846;2022-10-26T00:01:25;7.3;96.5
74484;SHT31;62942;52.462;10.846;2022-10-26T00:02:35;7.3;96.5
74484;SHT31;62942;52.462;10.846;2022-10-26T00:03:45;7.2;96.4
74484;SHT31;62942;52.462;10.846;2022-10-26T00:04:55;7.2;96.3
74484;SHT31;62942;52.462;10.846;2022-10-26T00:06:00;7.2;96.3
74484;SHT31;62942;52.462;10.846;2022-10-26T00:07:05;7.2;96.3
74484;SHT31;62942;52.462;10.846;2022-10-26T00:08:15;7.2;96.3
74484;SHT31;62942;52.462;10.846;2022-10-26T00:09:15;7.2;96.4
74484;SHT31;62942;52.462;10.846;2022-10-26T00:10:25;7.2;96.4
74484;SHT31;62942;52.462;10.846;2022-10-26T00:11:35;7.2;96.5
74484;SHT31;62942;52.462;10.846;2022-10-26T00:12:35;7.2;96.5
74484;SHT31;62942;52.462;10.846;2022-10-26T00:13:45;7.2;96.5
74484;SHT31;62942;52.462;10.846;2022-10-26T00:14:55;7.2;96.6
74484;SHT31;62942;52.462;10.846;2022-10-26T00:16:06;7.3;96.7
74484;SHT31;62942;52.462;10.846;2022-10-26T00:17:15;7.3;96.7
74484;SHT31;62942;52.462;10.846;2022-10-26T00:18:15;7.2;96.8
74484;SHT31;62942;52.462;10.846;2022-10-26T00:19:15;7.2;96.8
74484;SHT31;62942;52.462;10.846;2022-10-26T00:20:25;7.3;96.9
74484;SHT31;62942;52.462;10.846;2022-10-26T00:21:35;7.2;96.9
74484;SHT31;62942;52.462;10.846;2022-10-26T00:22:45;7.2;96.9
74484;SHT31;62942;52.462;10.846;2022-10-26T00:23:45;7.2;96.9
74484;SHT31;62942;52.462;10.846;2022-10-26T00:24:55;7.1;96.9
74484;SHT31;62942;52.462;10.846;2022-10-26T00:26:05;7.1;96.9
74484;SHT31;62942;52.462;10.846;2022-10-26T00:27:15;7;96.8
74484;SHT31;62942;52.462;10.846;2022-10-26T00:28:15;7;96.7
74484;SHT31;62942;52.462;10.846;2022-10-26T00:29:25;7;96.7
74484;SHT31;62942;52.462;10.846;2022-10-26T00:30:37;6.9;96.6
74484;SHT31;62942;52.462;10.846;2022-10-26T00:31:45;7;96.6
74484;SHT31;62942;52.462;10.846;2022-10-26T00:32:55;6.9;96.5
74484;SHT31;62942;52.462;10.846;2022-10-26T00:33:55;6.9;96.5
74484;SHT31;62942;52.462;10.846;2022-10-26T00:35:05;6.9;96.5
74484;SHT31;62942;52.462;10.846;2022-10-26T00:36:15;6.9;96.5
74484;SHT31;62942;52.462;10.846;2022-10-26T00:37:25;6.9;96.5
74484;SHT31;62942;52.462;10.846;2022-10-26T00:38:35;6.8;96.5
74484;SHT31;62942;52.462;10.846;2022-10-26T00:39:45;6.8;96.5
74484;SHT31;62942;52.462;10.846;2022-10-26T00:40:55;6.8;96.5
74484;SHT31;62942;52.462;10.846;2022-10-26T00:42:05;6.8;96.5
74484;SHT31;62942;52.462;10.846;2022-10-26T00:43:15;6.7;96.5
74484;SHT31;62942;52.462;10.846;2022-10-26T00:44:58;6.7;96.4
74484;SHT31;62942;52.462;10.846;2022-10-26T00:45:35;6.7;96.5
74484;SHT31;62942;52.462;10.846;2022-10-26T00:46:45;6.8;96.5
74484;SHT31;62942;52.462;10.846;2022-10-26T00:47:55;6.8;96.5
74484;SHT31;62942;52.462;10.846;2022-10-26T00:49:07;6.8;96.6
74484;SHT31;62942;52.462;10.846;2022-10-26T00:50:16;6.9;96.8
74484;SHT31;62942;52.462;10.846;2022-10-26T00:51:17;6.9;96.8
74484;SHT31;62942;52.462;10.846;2022-10-26T00:52:15;6.9;96.9
74484;SHT31;62942;52.462;10.846;2022-10-26T00:53:25;6.9;96.9
74484;SHT31;62942;52.462;10.846;2022-10-26T00:54:35;6.8;97
74484;SHT31;62942;52.462;10.846;2022-10-26T00:55:46;6.8;97
74484;SHT31;62942;52.462;10.846;2022-10-26T00:56:45;6.7;97
74484;SHT31;62942;52.462;10.846;2022-10-26T00:57:55;6.7;97
74484;SHT31;62942;52.462;10.846;2022-10-26T00:58:55;6.6;97
74484;SHT31;62942;52.462;10.846;2022-10-26T00:59:55;6.6;97
74484;SHT31;62942;52.462;10.846;2022-10-26T01:01:05;6.5;96.9
74484;SHT31;62942;52.462;10.846;2022-10-26T01:02:15;6.5;96.8
74484;SHT31;62942;52.462;10.846;2022-10-26T01:03:25;6.5;96.7
74484;SHT31;62942;52.462;10.846;2022-10-26T01:04:35;6.5;96.7
74484;SHT31;62942;52.462;10.846;2022-10-26T01:05:45;6.5;96.6
74484;SHT31;62942;52.462;10.846;2022-10-26T01:06:55;6.4;96.6
74484;SHT31;62942;52.462;10.846;2022-10-26T01:08:05;6.4;96.6
74484;SHT31;62942;52.462;10.846;2022-10-26T01:09:15;6.4;96.6
74484;SHT31;62942;52.462;10.846;2022-10-26T01:10:25;6.4;96.6
74484;SHT31;62942;52.462;10.846;2022-10-26T01:11:25;6.4;96.6
74484;SHT31;62942;52.462;10.846;2022-10-26T01:12:35;6.4;96.6
74484;SHT31;62942;52.462;10.846;2022-10-26T01:13:45;6.4;96.6
74484;SHT31;62942;52.462;10.846;2022-10-26T01:14:55;6.4;96.7
74484;SHT31;62942;52.462;10.846;2022-10-26T01:16:08;6.4;96.7
74484;SHT31;62942;52.462;10.846;2022-10-26T01:17:19;6.4;96.7
74484;SHT31;62942;52.462;10.846;2022-10-26T01:18:16;6.4;96.7
74484;SHT31;62942;52.462;10.846;2022-10-26T01:19:32;6.4;96.8
74484;SHT31;62942;52.462;10.846;2022-10-26T01:20:33;6.4;96.8
74484;SHT31;62942;52.462;10.846;2022-10-26T01:21:39;6.3;96.8
74484;SHT31;62942;52.462;10.846;2022-10-26T01:22:46;6.3;96.9
74484;SHT31;62942;52.462;10.846;2022-10-26T01:24:04;6.3;96.8
74484;SHT31;62942;52.462;10.846;2022-10-26T01:25:10;6.2;96.8
74484;SHT31;62942;52.462;10.846;2022-10-26T01:26:24;6.2;96.7
74484;SHT31;62942;52.462;10.846;2022-10-26T01:27:23;6.2;96.7
74484;SHT31;62942;52.462;10.846;2022-10-26T01:28:30;6.1;96.6
74484;SHT31;62942;52.462;10.846;2022-10-26T01:30:11;6.1;96.6
74484;SHT31;62942;52.462;10.846;2022-10-26T01:30:35;6.1;96.6
74484;SHT31;62942;52.462;10.846;2022-10-26T01:31:46;6.1;96.6
74484;SHT31;62942;52.462;10.846;2022-10-26T01:32:46;6;96.6
74484;SHT31;62942;52.462;10.846;2022-10-26T01:33:55;6;96.5
74484;SHT31;62942;52.462;10.846;2022-10-26T01:35:05;6;96.5
74484;SHT31;62942;52.462;10.846;2022-10-26T01:36:08;6;96.5
74484;SHT31;62942;52.462;10.846;2022-10-26T01:37:17;6;96.5
74484;SHT31;62942;52.462;10.846;2022-10-26T01:38:26;6;96.5
74484;SHT31;62942;52.462;10.846;2022-10-26T01:39:36;6;96.6
74484;SHT31;62942;52.462;10.846;2022-10-26T01:40:45;6;96.6
74484;SHT31;62942;52.462;10.846;2022-10-26T01:41:57;5.9;96.5
74484;SHT31;62942;52.462;10.846;2022-10-26T01:43:06;5.9;96.5
74484;SHT31;62942;52.462;10.846;2022-10-26T01:44:16;5.9;96.5
74484;SHT31;62942;52.462;10.846;2022-10-26T01:45:25;5.8;96.5
74484;SHT31;62942;52.462;10.846;2022-10-26T01:46:35;5.8;96.5
74484;SHT31;62942;52.462;10.846;2022-10-26T01:47:45;5.8;96.6
74484;SHT31;62942;52.462;10.846;2022-10-26T01:48:56;5.8;96.5
74484;SHT31;62942;52.462;10.846;2022-10-26T01:50:05;5.8;96.6
74484;SHT31;62942;52.462;10.846;2022-10-26T01:51:15;5.8;96.5
74484;SHT31;62942;52.462;10.846;2022-10-26T01:52:25;5.8;96.5
74484;SHT31;62942;52.462;10.846;2022-10-26T01:53:35;5.8;96.6
74484;SHT31;62942;52.462;10.846;2022-10-26T01:54:45;5.9;96.6
74484;SHT31;62942;52.462;10.846;2022-10-26T01:55:55;5.9;96.8
74484;SHT31;62942;52.462;10.846;2022-10-26T01:56:56;5.9;96.7
74484;SHT31;62942;52.462;10.846;2022-10-26T01:58:06;5.9;96.8
74484;SHT31;62942;52.462;10.846;2022-10-26T01:59:18;5.9;96.9
74484;SHT31;62942;52.462;10.846;2022-10-26T02:00:25;5.9;96.9
74484;SHT31;62942;52.462;10.846;2022-10-26T02:01:39;5.9;97
74484;SHT31;62942;52.462;10.846;2022-10-26T02:02:52;5.8;97
74484;SHT31;62942;52.462;10.846;2022-10-26T02:03:56;5.8;97
74484;SHT31;62942;52.462;10.846;2022-10-26T02:05:00;5.8;97
74484;SHT31;62942;52.462;10.846;2022-10-26T02:06:05;5.8;97
74484;SHT31;62942;52.462;10.846;2022-10-26T02:07:17;5.7;96.9
74484;SHT31;62942;52.462;10.846;2022-10-26T02:08:29;5.7;96.9
74484;SHT31;62942;52.462;10.846;2022-10-26T02:09:37;5.7;96.9
74484;SHT31;62942;52.462;10.846;2022-10-26T02:10:47;5.7;96.9
74484;SHT31;62942;52.462;10.846;2022-10-26T02:11:55;5.7;96.9
74484;SHT31;62942;52.462;10.846;2022-10-26T02:13:07;5.7;96.9
74484;SHT31;62942;52.462;10.846;2022-10-26T02:14:17;5.7;96.9
74484;SHT31;62942;52.462;10.846;2022-10-26T02:15:27;5.7;96.9
74484;SHT31;62942;52.462;10.846;2022-10-26T02:16:36;5.7;96.9
74484;SHT31;62942;52.462;10.846;2022-10-26T02:17:46;5.7;96.9
74484;SHT31;62942;52.462;10.846;2022-10-26T02:18:57;5.7;96.9
74484;SHT31;62942;52.462;10.846;2022-10-26T02:20:05;5.7;96.9
74484;SHT31;62942;52.462;10.846;2022-10-26T02:21:15;5.7;97
74484;SHT31;62942;52.462;10.846;2022-10-26T02:22:26;5.7;96.9
74484;SHT31;62942;52.462;10.846;2022-10-26T02:23:35;5.6;96.9
74484;SHT31;62942;52.462;10.846;2022-10-26T02:24:45;5.6;97
74484;SHT31;62942;52.462;10.846;2022-10-26T02:25:55;5.6;96.9
74484;SHT31;62942;52.462;10.846;2022-10-26T02:27:05;5.6;96.9
74484;SHT31;62942;52.462;10.846;2022-10-26T02:28:16;5.7;96.9
74484;SHT31;62942;52.462;10.846;2022-10-26T02:29:25;5.7;97
74484;SHT31;62942;52.462;10.846;2022-10-26T02:30:35;5.7;97
74484;SHT31;62942;52.462;10.846;2022-10-26T02:31:45;5.7;97
74484;SHT31;62942;52.462;10.846;2022-10-26T02:32:55;5.6;97
74484;SHT31;62942;52.462;10.846;2022-10-26T02:34:05;5.6;97
74484;SHT31;62942;52.462;10.846;2022-10-26T02:35:15;5.6;97
74484;SHT31;62942;52.462;10.846;2022-10-26T02:36:15;5.5;96.9
74484;SHT31;62942;52.462;10.846;2022-10-26T02:37:25;5.5;96.9
74484;SHT31;62942;52.462;10.846;2022-10-26T02:38:35;5.5;96.9
74484;SHT31;62942;52.462;10.846;2022-10-26T02:39:45;5.5;96.8
74484;SHT31;62942;52.462;10.846;2022-10-26T02:40:55;5.5;96.9
74484;SHT31;62942;52.462;10.846;2022-10-26T02:42:05;5.5;96.9
74484;SHT31;62942;52.462;10.846;2022-10-26T02:43:15;5.5;96.9
74484;SHT31;62942;52.462;10.846;2022-10-26T02:44:25;5.5;97
74484;SHT31;62942;52.462;10.846;2022-10-26T02:45:35;5.5;97
74484;SHT31;62942;52.462;10.846;2022-10-26T02:46:45;5.5;97
74484;SHT31;62942;52.462;10.846;2022-10-26T02:47:55;5.5;97
74484;SHT31;62942;52.462;10.846;2022-10-26T02:49:05;5.5;97.1
74484;SHT31;62942;52.462;10.846;2022-10-26T02:50:05;5.5;97.1
74484;SHT31;62942;52.462;10.846;2022-10-26T02:51:07;5.5;97.1
74484;SHT31;62942;52.462;10.846;2022-10-26T02:52:16;5.4;97.2
74484;SHT31;62942;52.462;10.846;2022-10-26T02:53:26;5.4;97.2
74484;SHT31;62942;52.462;10.846;2022-10-26T02:54:35;5.4;97.2
74484;SHT31;62942;52.462;10.846;2022-10-26T02:55:45;5.4;97.2
74484;SHT31;62942;52.462;10.846;2022-10-26T02:56:45;5.4;97.2
74484;SHT31;62942;52.462;10.846;2022-10-26T02:57:56;5.4;97.1
74484;SHT31;62942;52.462;10.846;2022-10-26T02:59:05;5.4;97.1
74484;SHT31;62942;52.462;10.846;2022-10-26T03:00:05;5.4;97.1
74484;SHT31;62942;52.462;10.846;2022-10-26T03:01:15;5.4;97
74484;SHT31;62942;52.462;10.846;2022-10-26T03:02:24;5.4;97.1
74484;SHT31;62942;52.462;10.846;2022-10-26T03:03:35;5.4;97.1
74484;SHT31;62942;52.462;10.846;2022-10-26T03:04:45;5.5;97.1
74484;SHT31;62942;52.462;10.846;2022-10-26T03:05:55;5.5;97.2
74484;SHT31;62942;52.462;10.846;2022-10-26T03:07:04;5.6;97.2
74484;SHT31;62942;52.462;10.846;2022-10-26T03:08:15;5.6;97.3
74484;SHT31;62942;52.462;10.846;2022-10-26T03:09:25;5.6;97.3
74484;SHT31;62942;52.462;10.846;2022-10-26T03:10:25;5.6;97.4
74484;SHT31;62942;52.462;10.846;2022-10-26T03:11:34;5.6;97.4
74484;SHT31;62942;52.462;10.846;2022-10-26T03:12:44;5.6;97.4
74484;SHT31;62942;52.462;10.846;2022-10-26T03:13:54;5.6;97.5
74484;SHT31;62942;52.462;10.846;2022-10-26T03:15:05;5.6;97.5
74484;SHT31;62942;52.462;10.846;2022-10-26T03:16:15;5.6;97.6
74484;SHT31;62942;52.462;10.846;2022-10-26T03:17:24;5.6;97.5
74484;SHT31;62942;52.462;10.846;2022-10-26T03:18:24;5.6;97.5
74484;SHT31;62942;52.462;10.846;2022-10-26T03:19:35;5.6;97.5
74484;SHT31;62942;52.462;10.846;2022-10-26T03:20:45;5.6;97.6
74484;SHT31;62942;52.462;10.846;2022-10-26T03:21:55;5.5;97.5
74484;SHT31;62942;52.462;10.846;2022-10-26T03:23:04;5.5;97.6
74484;SHT31;62942;52.462;10.846;2022-10-26T03:24:14;5.5;97.6
74484;SHT31;62942;52.462;10.846;2022-10-26T03:25:25;5.5;97.6
74484;SHT31;62942;52.462;10.846;2022-10-26T03:26:24;5.5;97.6
74484;SHT31;62942;52.462;10.846;2022-10-26T03:27:34;5.4;97.6
74484;SHT31;62942;52.462;10.846;2022-10-26T03:28:45;5.4;97.6
74484;SHT31;62942;52.462;10.846;2022-10-26T03:29:54;5.4;97.5
74484;SHT31;62942;52.462;10.846;2022-10-26T03:30:54;5.3;97.5
74484;SHT31;62942;52.462;10.846;2022-10-26T03:32:05;5.3;97.5
74484;SHT31;62942;52.462;10.846;2022-10-26T03:33:14;5.3;97.4
74484;SHT31;62942;52.462;10.846;2022-10-26T03:34:14;5.3;97.4
74484;SHT31;62942;52.462;10.846;2022-10-26T03:35:15;5.3;97.3
74484;SHT31;62942;52.462;10.846;2022-10-26T03:36:24;5.4;97.3
74484;SHT31;62942;52.462;10.846;2022-10-26T03:37:24;5.3;97.3
74484;SHT31;62942;52.462;10.846;2022-10-26T03:38:34;5.3;97.3
74484;SHT31;62942;52.462;10.846;2022-10-26T03:39:44;5.3;97.3
74484;SHT31;62942;52.462;10.846;2022-10-26T03:40:44;5.3;97.3
74484;SHT31;62942;52.462;10.846;2022-10-26T03:41:54;5.3;97.3
74484;SHT31;62942;52.462;10.846;2022-10-26T03:43:04;5.3;97.3
74484;SHT31;62942;52.462;10.846;2022-10-26T03:44:14;5.3;97.3
74484;SHT31;62942;52.462;10.846;2022-10-26T03:45:14;5.2;97.3
74484;SHT31;62942;52.462;10.846;2022-10-26T03:46:24;5.2;97.2
74484;SHT31;62942;52.462;10.846;2022-10-26T03:47:39;5.2;97.2
74484;SHT31;62942;52.462;10.846;2022-10-26T03:48:44;5.1;97.2
74484;SHT31;62942;52.462;10.846;2022-10-26T03:49:54;5.1;97.1
74484;SHT31;62942;52.462;10.846;2022-10-26T03:50:56;5.1;97.1
74484;SHT31;62942;52.462;10.846;2022-10-26T03:52:04;5.1;97.2
74484;SHT31;62942;52.462;10.846;2022-10-26T03:53:14;5;97.1
74484;SHT31;62942;52.462;10.846;2022-10-26T03:54:24;5.1;97.1
74484;SHT31;62942;52.462;10.846;2022-10-26T03:55:35;5.1;97.1
74484;SHT31;62942;52.462;10.846;2022-10-26T03:56:34;5.1;97.1
74484;SHT31;62942;52.462;10.846;2022-10-26T03:57:45;5.1;97
74484;SHT31;62942;52.462;10.846;2022-10-26T03:58:54;5.2;97
74484;SHT31;62942;52.462;10.846;2022-10-26T03:59:54;5.2;97.1
74484;SHT31;62942;52.462;10.846;2022-10-26T04:01:04;5.3;97.2
74484;SHT31;62942;52.462;10.846;2022-10-26T04:02:14;5.3;97.2
74484;SHT31;62942;52.462;10.846;2022-10-26T04:03:24;5.4;97.3
74484;SHT31;62942;52.462;10.846;2022-10-26T04:04:24;5.4;97.4
74484;SHT31;62942;52.462;10.846;2022-10-26T04:05:34;5.5;97.5
74484;SHT31;62942;52.462;10.846;2022-10-26T04:06:44;5.5;97.5
74484;SHT31;62942;52.462;10.846;2022-10-26T04:07:55;5.4;97.5
74484;SHT31;62942;52.462;10.846;2022-10-26T04:09:04;5.5;97.6
74484;SHT31;62942;52.462;10.846;2022-10-26T04:10:14;5.5;97.7
74484;SHT31;62942;52.462;10.846;2022-10-26T04:11:24;5.5;97.7
74484;SHT31;62942;52.462;10.846;2022-10-26T04:12:24;5.4;97.7
74484;SHT31;62942;52.462;10.846;2022-10-26T04:13:34;5.4;97.8
74484;SHT31;62942;52.462;10.846;2022-10-26T04:14:44;5.4;97.9
74484;SHT31;62942;52.462;10.846;2022-10-26T04:15:54;5.4;97.9
74484;SHT31;62942;52.462;10.846;2022-10-26T04:16:54;5.4;97.8
74484;SHT31;62942;52.462;10.846;2022-10-26T04:18:04;5.4;97.8
74484;SHT31;62942;52.462;10.846;2022-10-26T04:19:14;5.3;97.8
74484;SHT31;62942;52.462;10.846;2022-10-26T04:20:25;5.3;97.7
74484;SHT31;62942;52.462;10.846;2022-10-26T04:21:34;5.3;97.7
74484;SHT31;62942;52.462;10.846;2022-10-26T04:22:44;5.3;97.7
74484;SHT31;62942;52.462;10.846;2022-10-26T04:23:44;5.3;97.6
74484;SHT31;62942;52.462;10.846;2022-10-26T04:24:54;5.3;97.5
74484;SHT31;62942;52.462;10.846;2022-10-26T04:26:04;5.3;97.5
74484;SHT31;62942;52.462;10.846;2022-10-26T04:27:14;5.3;97.5
74484;SHT31;62942;52.462;10.846;2022-10-26T04:28:14;5.3;97.5
74484;SHT31;62942;52.462;10.846;2022-10-26T04:29:24;5.4;97.5
74484;SHT31;62942;52.462;10.846;2022-10-26T04:30:35;5.4;97.6
74484;SHT31;62942;52.462;10.846;2022-10-26T04:31:44;5.4;97.5
74484;SHT31;62942;52.462;10.846;2022-10-26T04:32:54;5.4;97.6
74484;SHT31;62942;52.462;10.846;2022-10-26T04:34:04;5.5;97.6
74484;SHT31;62942;52.462;10.846;2022-10-26T04:35:15;5.5;97.6
74484;SHT31;62942;52.462;10.846;2022-10-26T04:36:14;5.5;97.7
74484;SHT31;62942;52.462;10.846;2022-10-26T04:37:24;5.5;97.7
74484;SHT31;62942;52.462;10.846;2022-10-26T04:38:34;5.5;97.7
74484;SHT31;62942;52.462;10.846;2022-10-26T04:39:44;5.6;97.7
74484;SHT31;62942;52.462;10.846;2022-10-26T04:40:54;5.6;97.8
74484;SHT31;62942;52.462;10.846;2022-10-26T04:42:04;5.6;97.8
74484;SHT31;62942;52.462;10.846;2022-10-26T04:43:14;5.6;97.8
74484;SHT31;62942;52.462;10.846;2022-10-26T04:44:24;5.6;97.8
74484;SHT31;62942;52.462;10.846;2022-10-26T04:45:34;5.7;97.8
74484;SHT31;62942;52.462;10.846;2022-10-26T04:46:44;5.7;97.9
74484;SHT31;62942;52.462;10.846;2022-10-26T04:47:57;5.8;97.9
74484;SHT31;62942;52.462;10.846;2022-10-26T04:49:04;5.8;97.9
74484;SHT31;62942;52.462;10.846;2022-10-26T04:50:14;5.8;97.9
74484;SHT31;62942;52.462;10.846;2022-10-26T04:51:14;5.9;98
74484;SHT31;62942;52.462;10.846;2022-10-26T04:52:24;5.9;98
74484;SHT31;62942;52.462;10.846;2022-10-26T04:53:34;5.9;98
74484;SHT31;62942;52.462;10.846;2022-10-26T04:54:44;5.9;98
74484;SHT31;62942;52.462;10.846;2022-10-26T04:55:44;5.9;98
74484;SHT31;62942;52.462;10.846;2022-10-26T04:56:54;5.9;98
74484;SHT31;62942;52.462;10.846;2022-10-26T04:58:04;5.9;98.1
74484;SHT31;62942;52.462;10.846;2022-10-26T04:59:14;5.9;98
74484;SHT31;62942;52.462;10.846;2022-10-26T05:00:14;5.8;98.1
74484;SHT31;62942;52.462;10.846;2022-10-26T05:01:24;5.8;98
74484;SHT31;62942;52.462;10.846;2022-10-26T05:02:34;5.8;98
74484;SHT31;62942;52.462;10.846;2022-10-26T05:03:47;5.8;98
74484;SHT31;62942;52.462;10.846;2022-10-26T05:04:54;5.8;97.9
74484;SHT31;62942;52.462;10.846;2022-10-26T05:05:56;5.8;97.9
74484;SHT31;62942;52.462;10.846;2022-10-26T05:07:04;5.8;97.9
74484;SHT31;62942;52.462;10.846;2022-10-26T05:08:14;5.8;97.9
74484;SHT31;62942;52.462;10.846;2022-10-26T05:09:14;5.9;97.9
74484;SHT31;62942;52.462;10.846;2022-10-26T05:10:25;5.9;97.9
74484;SHT31;62942;52.462;10.846;2022-10-26T05:11:34;5.9;97.8
74484;SHT31;62942;52.462;10.846;2022-10-26T05:12:48;5.8;97.8
74484;SHT31;62942;52.462;10.846;2022-10-26T05:13:54;5.8;97.7
74484;SHT31;62942;52.462;10.846;2022-10-26T05:14:54;5.8;97.7
74484;SHT31;62942;52.462;10.846;2022-10-26T05:16:04;5.7;97.7
74484;SHT31;62942;52.462;10.846;2022-10-26T05:17:14;5.7;97.7
74484;SHT31;62942;52.462;10.846;2022-10-26T05:18:24;5.7;97.7
74484;SHT31;62942;52.462;10.846;2022-10-26T05:19:34;5.7;97.6
74484;SHT31;62942;52.462;10.846;2022-10-26T05:20:35;5.7;97.7
74484;SHT31;62942;52.462;10.846;2022-10-26T05:21:44;5.7;97.6
74484;SHT31;62942;52.462;10.846;2022-10-26T05:22:54;5.7;97.6
74484;SHT31;62942;52.462;10.846;2022-10-26T05:24:04;5.7;97.6
74484;SHT31;62942;52.462;10.846;2022-10-26T05:25:14;5.7;97.6
74484;SHT31;62942;52.462;10.846;2022-10-26T05:26:24;5.8;97.6
74484;SHT31;62942;52.462;10.846;2022-10-26T05:27:34;5.8;97.6
74484;SHT31;62942;52.462;10.846;2022-10-26T05:28:44;5.8;97.6
74484;SHT31;62942;52.462;10.846;2022-10-26T05:29:54;5.8;97.7
74484;SHT31;62942;52.462;10.846;2022-10-26T05:31:04;5.8;97.7
74484;SHT31;62942;52.462;10.846;2022-10-26T05:32:14;5.8;97.7
74484;SHT31;62942;52.462;10.846;2022-10-26T05:33:14;5.8;97.7
74484;SHT31;62942;52.462;10.846;2022-10-26T05:34:24;5.8;97.8
74484;SHT31;62942;52.462;10.846;2022-10-26T05:35:34;5.8;97.8
74484;SHT31;62942;52.462;10.846;2022-10-26T05:36:44;5.8;97.8
74484;SHT31;62942;52.462;10.846;2022-10-26T05:37:54;5.8;97.8
74484;SHT31;62942;52.462;10.846;2022-10-26T05:39:04;5.8;97.7
74484;SHT31;62942;52.462;10.846;2022-10-26T05:40:05;5.8;97.8
74484;SHT31;62942;52.462;10.846;2022-10-26T05:41:14;5.8;97.8
74484;SHT31;62942;52.462;10.846;2022-10-26T05:42:24;5.8;97.8
74484;SHT31;62942;52.462;10.846;2022-10-26T05:43:34;5.8;97.8
74484;SHT31;62942;52.462;10.846;2022-10-26T05:44:44;5.8;97.8
74484;SHT31;62942;52.462;10.846;2022-10-26T05:45:44;5.8;97.8
74484;SHT31;62942;52.462;10.846;2022-10-26T05:46:54;5.8;97.8
74484;SHT31;62942;52.462;10.846;2022-10-26T05:48:04;5.8;97.8
74484;SHT31;62942;52.462;10.846;2022-10-26T05:49:14;5.8;97.8
74484;SHT31;62942;52.462;10.846;2022-10-26T05:50:24;5.8;97.8
74484;SHT31;62942;52.462;10.846;2022-10-26T05:51:24;5.7;97.9
74484;SHT31;62942;52.462;10.846;2022-10-26T05:52:37;5.7;97.8
74484;SHT31;62942;52.462;10.846;2022-10-26T05:53:44;5.7;97.8
74484;SHT31;62942;52.462;10.846;2022-10-26T05:54:44;5.7;97.8
74484;SHT31;62942;52.462;10.846;2022-10-26T05:55:55;5.7;97.8
74484;SHT31;62942;52.462;10.846;2022-10-26T05:57:04;5.7;97.8
74484;SHT31;62942;52.462;10.846;2022-10-26T05:58:07;5.6;97.8
74484;SHT31;62942;52.462;10.846;2022-10-26T05:59:14;5.6;97.8
74484;SHT31;62942;52.462;10.846;2022-10-26T06:00:25;5.6;97.8
74484;SHT31;62942;52.462;10.846;2022-10-26T06:01:25;5.6;97.8
74484;SHT31;62942;52.462;10.846;2022-10-26T06:02:36;5.7;97.8
74484;SHT31;62942;52.462;10.846;2022-10-26T06:03:48;5.7;97.8
74484;SHT31;62942;52.462;10.846;2022-10-26T06:04:44;5.7;97.8
74484;SHT31;62942;52.462;10.846;2022-10-26T06:05:55;5.7;97.8
74484;SHT31;62942;52.462;10.846;2022-10-26T06:07:08;5.7;97.8
74484;SHT31;62942;52.462;10.846;2022-10-26T06:08:14;5.8;97.9
74484;SHT31;62942;52.462;10.846;2022-10-26T06:09:14;5.8;97.9
74484;SHT31;62942;52.462;10.846;2022-10-26T06:10:24;5.8;97.9
74484;SHT31;62942;52.462;10.846;2022-10-26T06:11:24;5.8;97.9
74484;SHT31;62942;52.462;10.846;2022-10-26T06:12:34;5.8;98
74484;SHT31;62942;52.462;10.846;2022-10-26T06:13:44;5.8;98
74484;SHT31;62942;52.462;10.846;2022-10-26T06:14:55;5.9;98
74484;SHT31;62942;52.462;10.846;2022-10-26T06:16:08;5.9;98
74484;SHT31;62942;52.462;10.846;2022-10-26T06:17:18;5.9;98.1
74484;SHT31;62942;52.462;10.846;2022-10-26T06:18:26;5.9;98.1
74484;SHT31;62942;52.462;10.846;2022-10-26T06:19:38;6;98.1
74484;SHT31;62942;52.462;10.846;2022-10-26T06:20:47;6;98.2
74484;SHT31;62942;52.462;10.846;2022-10-26T06:21:58;5.9;98.2
74484;SHT31;62942;52.462;10.846;2022-10-26T06:23:08;5.9;98.2
74484;SHT31;62942;52.462;10.846;2022-10-26T06:24:16;5.9;98.2
74484;SHT31;62942;52.462;10.846;2022-10-26T06:25:17;5.9;98.3
74484;SHT31;62942;52.462;10.846;2022-10-26T06:26:28;5.9;98.3
74484;SHT31;62942;52.462;10.846;2022-10-26T06:27:36;5.9;98.4
74484;SHT31;62942;52.462;10.846;2022-10-26T06:28:46;5.9;98.3
74484;SHT31;62942;52.462;10.846;2022-10-26T06:29:55;5.9;98.4
74484;SHT31;62942;52.462;10.846;2022-10-26T06:31:04;5.9;98.4
74484;SHT31;62942;52.462;10.846;2022-10-26T06:32:05;5.9;98.4
74484;SHT31;62942;52.462;10.846;2022-10-26T06:33:14;6;98.4
74484;SHT31;62942;52.462;10.846;2022-10-26T06:34:16;6;98.4
74484;SHT31;62942;52.462;10.846;2022-10-26T06:35:26;6;98.4
74484;SHT31;62942;52.462;10.846;2022-10-26T06:36:34;6;98.4
74484;SHT31;62942;52.462;10.846;2022-10-26T06:37:44;6;98.5
74484;SHT31;62942;52.462;10.846;2022-10-26T06:38:55;6.1;98.5
74484;SHT31;62942;52.462;10.846;2022-10-26T06:40:04;6.1;98.5
74484;SHT31;62942;52.462;10.846;2022-10-26T06:41:14;6.1;98.5
74484;SHT31;62942;52.462;10.846;2022-10-26T06:42:24;6.2;98.5
74484;SHT31;62942;52.462;10.846;2022-10-26T06:43:34;6.2;98.5
74484;SHT31;62942;52.462;10.846;2022-10-26T06:44:44;6.3;98.5
74484;SHT31;62942;52.462;10.846;2022-10-26T06:45:44;6.3;98.6
74484;SHT31;62942;52.462;10.846;2022-10-26T06:46:56;6.3;98.6
74484;SHT31;62942;52.462;10.846;2022-10-26T06:48:06;6.3;98.6
74484;SHT31;62942;52.462;10.846;2022-10-26T06:49:16;6.4;98.6
74484;SHT31;62942;52.462;10.846;2022-10-26T06:50:26;6.4;98.6
74484;SHT31;62942;52.462;10.846;2022-10-26T06:51:35;6.5;98.7
74484;SHT31;62942;52.462;10.846;2022-10-26T06:52:45;6.5;98.7
74484;SHT31;62942;52.462;10.846;2022-10-26T06:53:56;6.6;98.7
74484;SHT31;62942;52.462;10.846;2022-10-26T06:55:04;6.6;98.7
74484;SHT31;62942;52.462;10.846;2022-10-26T06:56:14;6.7;98.8
74484;SHT31;62942;52.462;10.846;2022-10-26T06:57:26;6.8;98.8
74484;SHT31;62942;52.462;10.846;2022-10-26T06:58:34;6.8;98.8
74484;SHT31;62942;52.462;10.846;2022-10-26T06:59:45;6.9;98.8
74484;SHT31;62942;52.462;10.846;2022-10-26T07:00:54;7;98.9
74484;SHT31;62942;52.462;10.846;2022-10-26T07:02:04;7;98.9
74484;SHT31;62942;52.462;10.846;2022-10-26T07:03:14;7;98.9
74484;SHT31;62942;52.462;10.846;2022-10-26T07:04:24;7.1;98.8
74484;SHT31;62942;52.462;10.846;2022-10-26T07:05:24;7.1;98.9
74484;SHT31;62942;52.462;10.846;2022-10-26T07:06:34;7.2;98.9
74484;SHT31;62942;52.462;10.846;2022-10-26T07:07:34;7.2;98.9
74484;SHT31;62942;52.462;10.846;2022-10-26T07:08:44;7.2;98.9
74484;SHT31;62942;52.462;10.846;2022-10-26T07:09:54;7.2;98.9
74484;SHT31;62942;52.462;10.846;2022-10-26T07:11:04;7.2;98.9
74484;SHT31;62942;52.462;10.846;2022-10-26T07:12:14;7.2;98.8
74484;SHT31;62942;52.462;10.846;2022-10-26T07:13:24;7.2;98.8
74484;SHT31;62942;52.462;10.846;2022-10-26T07:14:24;7.2;98.8
74484;SHT31;62942;52.462;10.846;2022-10-26T07:15:34;7.2;98.7
74484;SHT31;62942;52.462;10.846;2022-10-26T07:16:44;7.2;98.7
74484;SHT31;62942;52.462;10.846;2022-10-26T07:17:54;7.2;98.7
74484;SHT31;62942;52.462;10.846;2022-10-26T07:19:04;7.2;98.7
74484;SHT31;62942;52.462;10.846;2022-10-26T07:20:14;7.2;98.7
74484;SHT31;62942;52.462;10.846;2022-10-26T07:21:24;7.3;98.6
74484;SHT31;62942;52.462;10.846;2022-10-26T07:22:34;7.4;98.7
74484;SHT31;62942;52.462;10.846;2022-10-26T07:23:44;7.5;98.7
74484;SHT31;62942;52.462;10.846;2022-10-26T07:24:54;7.6;98.7
74484;SHT31;62942;52.462;10.846;2022-10-26T07:26:04;7.6;98.7
74484;SHT31;62942;52.462;10.846;2022-10-26T07:27:14;7.7;98.7